createdAt,value
2019-02-06T00:02:12.574Z,3.60
2019-02-06T00:04:41.570Z,3.50
2019-02-06T00:07:11.881Z,3.50
2019-02-06T00:09:41.468Z,3.50
2019-02-06T00:12:10.554Z,3.50
2019-02-06T00:14:39.895Z,3.50
2019-02-06T00:17:08.976Z,3.50
2019-02-06T00:19:37.983Z,3.50
2019-02-06T00:22:08.836Z,3.50
2019-02-06T00:24:37.820Z,3.50
2019-02-06T00:27:13.324Z,3.50
2019-02-06T00:29:42.541Z,3.50
2019-02-06T00:32:11.596Z,3.50
2019-02-06T00:34:40.591Z,3.50
2019-02-06T00:37:09.584Z,3.50
2019-02-06T00:39:38.579Z,3.50
2019-02-06T00:42:07.605Z,3.50
2019-02-06T00:44:36.904Z,3.50
2019-02-06T00:47:05.887Z,3.50
2019-02-06T00:49:34.898Z,3.50
2019-02-06T00:52:03.912Z,3.50
2019-02-06T00:54:32.860Z,3.50
2019-02-06T00:57:01.789Z,3.50
2019-02-06T00:59:31.090Z,3.50
2019-02-06T01:02:00.186Z,3.50
2019-02-06T01:04:29.168Z,3.50
2019-02-06T01:06:58.200Z,3.50
2019-02-06T01:09:27.138Z,3.50
2019-02-06T01:11:56.143Z,3.50
2019-02-06T01:14:25.150Z,3.50
2019-02-06T01:16:54.060Z,3.60
2019-02-06T01:19:23.129Z,3.60
2019-02-06T01:21:52.149Z,3.50
2019-02-06T01:24:21.088Z,3.50
2019-02-06T01:26:50.001Z,3.50
2019-02-06T01:29:20.060Z,3.50
2019-02-06T01:31:49.532Z,3.60
2019-02-06T01:34:18.493Z,3.60
2019-02-06T01:36:47.477Z,3.60
2019-02-06T01:39:18.928Z,3.60
2019-02-06T01:41:47.987Z,3.60
2019-02-06T01:44:17.028Z,3.70
2019-02-06T01:46:46.496Z,3.70
2019-02-06T01:49:15.471Z,3.70
2019-02-06T01:51:44.549Z,3.70
2019-02-06T01:54:13.575Z,3.70
2019-02-06T01:56:42.510Z,3.70
2019-02-06T01:59:11.424Z,3.80
2019-02-06T02:01:40.400Z,3.70
2019-02-06T02:04:09.432Z,3.70
2019-02-06T02:06:38.377Z,3.70
2019-02-06T02:09:19.498Z,3.70
2019-02-06T02:11:48.607Z,3.70
2019-02-06T02:14:17.605Z,3.70
2019-02-06T02:16:46.879Z,3.70
2019-02-06T02:19:15.883Z,3.70
2019-02-06T02:21:44.798Z,3.70
2019-02-06T02:24:13.712Z,3.70
2019-02-06T02:26:42.624Z,3.70
2019-02-06T02:29:11.573Z,3.70
2019-02-06T02:31:40.979Z,3.70
2019-02-06T02:34:09.972Z,3.70
2019-02-06T02:36:39.007Z,3.70
2019-02-06T02:39:08.545Z,3.70
2019-02-06T02:41:37.673Z,3.70
2019-02-06T02:44:06.846Z,3.70
2019-02-06T02:46:37.273Z,3.70
2019-02-06T02:49:06.177Z,3.70
2019-02-06T02:51:35.149Z,3.70
2019-02-06T02:54:09.481Z,3.80
2019-02-06T02:56:37.675Z,3.80
2019-02-06T02:59:06.689Z,3.80
2019-02-06T03:01:53.606Z,3.80
2019-02-06T03:04:35.645Z,3.80
2019-02-06T03:07:04.645Z,3.80
2019-02-06T03:09:33.628Z,3.80
2019-02-06T03:12:02.625Z,3.80
2019-02-06T03:14:31.556Z,3.80
2019-02-06T03:17:03.154Z,3.90
2019-02-06T03:19:31.207Z,3.90
2019-02-06T03:22:00.185Z,3.90
2019-02-06T03:24:29.115Z,4.00
2019-02-06T03:26:58.205Z,4.00
2019-02-06T03:29:27.231Z,4.10
2019-02-06T03:31:56.172Z,4.10
2019-02-06T03:34:25.158Z,4.10
2019-02-06T03:36:54.071Z,4.10
2019-02-06T03:39:22.978Z,4.20
2019-02-06T03:41:52.254Z,4.20
2019-02-06T03:44:21.152Z,4.20
2019-02-06T03:46:50.052Z,4.20
2019-02-06T03:49:19.061Z,4.30
2019-02-06T03:51:48.091Z,4.30
2019-02-06T03:54:17.008Z,4.30
2019-02-06T03:56:46.258Z,4.30
2019-02-06T03:59:15.167Z,4.30
2019-02-06T04:01:44.177Z,4.30
2019-02-06T04:04:13.083Z,4.30
2019-02-06T04:06:53.566Z,4.40
2019-02-06T04:09:12.712Z,4.40
2019-02-06T04:11:41.692Z,4.40
2019-02-06T04:14:10.868Z,4.40
2019-02-06T04:16:39.780Z,4.40
2019-02-06T04:19:09.271Z,4.40
2019-02-06T04:21:38.191Z,4.40
2019-02-06T04:24:07.250Z,4.50
2019-02-06T04:26:36.278Z,4.50
2019-02-06T04:29:05.285Z,4.50
2019-02-06T04:31:34.268Z,4.50
2019-02-06T04:34:03.302Z,4.60
2019-02-06T04:36:32.169Z,4.60
2019-02-06T04:39:01.019Z,4.60
2019-02-06T04:41:29.993Z,4.60
2019-02-06T04:43:59.330Z,4.60
2019-02-06T04:46:28.268Z,4.70
2019-02-06T04:48:57.347Z,4.60
2019-02-06T04:51:26.348Z,4.70
2019-02-06T04:53:55.435Z,4.70
2019-02-06T04:56:25.317Z,4.70
2019-02-06T04:58:54.892Z,4.70
2019-02-06T05:01:23.982Z,4.70
2019-02-06T05:03:53.106Z,4.70
2019-02-06T05:06:22.335Z,4.70
2019-02-06T05:08:51.470Z,4.70
2019-02-06T05:11:20.659Z,4.70
2019-02-06T05:13:49.569Z,4.70
2019-02-06T05:16:18.732Z,4.80
2019-02-06T05:18:47.774Z,4.70
2019-02-06T05:21:16.855Z,4.70
2019-02-06T05:23:47.111Z,4.70
2019-02-06T05:26:16.932Z,4.70
2019-02-06T05:28:46.850Z,4.70
2019-02-06T05:31:17.445Z,4.70
2019-02-06T05:33:46.785Z,4.70
2019-02-06T05:36:15.918Z,4.70
2019-02-06T05:38:46.341Z,4.70
2019-02-06T05:41:17.046Z,4.70
2019-02-06T05:43:47.751Z,4.70
2019-02-06T05:46:16.908Z,4.70
2019-02-06T05:48:49.318Z,4.70
2019-02-06T05:51:18.437Z,4.70
2019-02-06T05:53:47.644Z,4.70
2019-02-06T05:56:17.042Z,4.70
2019-02-06T05:58:46.137Z,4.70
2019-02-06T06:01:16.884Z,4.70
2019-02-06T06:03:46.758Z,4.70
2019-02-06T06:06:17.180Z,4.70
2019-02-06T06:08:46.926Z,4.70
2019-02-06T06:11:16.944Z,4.70
2019-02-06T06:13:46.960Z,4.70
2019-02-06T06:16:16.782Z,4.70
2019-02-06T06:18:47.175Z,4.70
2019-02-06T06:21:17.240Z,4.70
2019-02-06T06:23:47.789Z,4.70
2019-02-06T06:26:18.683Z,4.70
2019-02-06T06:28:47.994Z,4.70
2019-02-06T06:31:18.371Z,4.70
2019-02-06T06:33:47.904Z,4.90
2019-02-06T06:36:18.417Z,4.90
2019-02-06T06:38:49.528Z,4.80
2019-02-06T06:41:20.048Z,4.80
2019-02-06T06:43:50.924Z,4.80
2019-02-06T06:46:20.761Z,4.80
2019-02-06T06:48:50.320Z,4.80
2019-02-06T06:51:19.366Z,4.80
2019-02-06T06:53:48.838Z,4.80
2019-02-06T06:56:18.238Z,4.80
2019-02-06T06:58:47.629Z,4.80
2019-02-06T07:01:17.679Z,4.80
2019-02-06T07:03:47.223Z,4.80
2019-02-06T07:06:16.323Z,4.80
2019-02-06T07:08:45.962Z,4.80
2019-02-06T07:11:14.982Z,4.80
2019-02-06T07:13:43.976Z,4.80
2019-02-06T07:16:12.887Z,4.80
2019-02-06T07:18:41.816Z,4.80
2019-02-06T07:21:10.827Z,4.80
2019-02-06T07:23:39.803Z,4.80
2019-02-06T07:26:08.741Z,4.80
2019-02-06T07:28:37.739Z,4.80
2019-02-06T07:31:09.499Z,4.80
2019-02-06T07:33:38.601Z,4.80
2019-02-06T07:36:11.862Z,4.80
2019-02-06T07:38:43.476Z,4.80
2019-02-06T07:41:12.475Z,4.80
2019-02-06T07:43:43.150Z,4.80
2019-02-06T07:46:12.111Z,4.80
2019-02-06T07:48:41.053Z,4.90
2019-02-06T07:51:09.960Z,4.90
2019-02-06T07:53:38.901Z,4.90
2019-02-06T07:56:07.888Z,4.90
2019-02-06T07:58:36.810Z,4.90
2019-02-06T08:01:05.800Z,4.90
2019-02-06T08:03:34.727Z,4.90
2019-02-06T08:06:03.766Z,4.90
2019-02-06T08:08:36.035Z,4.90
2019-02-06T08:11:03.406Z,4.90
2019-02-06T08:13:32.386Z,4.90
2019-02-06T08:16:01.646Z,5.00
2019-02-06T08:18:30.637Z,5.00
2019-02-06T08:21:01.463Z,5.00
2019-02-06T08:23:30.288Z,5.00
2019-02-06T08:25:59.345Z,5.00
2019-02-06T08:28:28.403Z,5.00
2019-02-06T08:30:57.897Z,5.10
2019-02-06T08:33:26.812Z,5.10
2019-02-06T08:35:55.873Z,5.10
2019-02-06T08:38:24.777Z,5.10
2019-02-06T08:40:53.884Z,5.10
2019-02-06T08:43:22.836Z,5.10
2019-02-06T08:45:51.988Z,5.10
2019-02-06T08:48:20.926Z,5.20
2019-02-06T08:50:49.937Z,5.20
2019-02-06T08:53:18.971Z,5.20
2019-02-06T08:55:47.985Z,5.20
2019-02-06T08:58:17.053Z,5.30
2019-02-06T09:00:45.976Z,5.30
2019-02-06T09:03:14.963Z,5.30
2019-02-06T09:05:43.968Z,5.30
2019-02-06T09:08:13.008Z,5.30
2019-02-06T09:10:42.183Z,5.30
2019-02-06T09:13:12.100Z,5.40
2019-02-06T09:15:41.053Z,5.40
2019-02-06T09:18:11.594Z,5.40
2019-02-06T09:20:40.616Z,5.40
2019-02-06T09:23:09.589Z,5.50
2019-02-06T09:25:38.563Z,5.50
2019-02-06T09:28:07.567Z,5.50
2019-02-06T09:30:36.671Z,5.60
2019-02-06T09:33:06.366Z,5.60
2019-02-06T09:35:35.297Z,5.60
2019-02-06T09:38:04.317Z,5.60
2019-02-06T09:40:33.326Z,5.60
2019-02-06T09:43:02.324Z,5.60
2019-02-06T09:45:31.442Z,5.70
2019-02-06T09:48:00.457Z,5.70
2019-02-06T09:50:31.744Z,5.70
2019-02-06T09:53:00.671Z,5.70
2019-02-06T09:55:29.867Z,5.70
2019-02-06T09:57:58.951Z,5.70
2019-02-06T10:00:33.038Z,5.70
2019-02-06T10:03:03.497Z,5.70
2019-02-06T10:05:32.496Z,5.80
2019-02-06T10:08:01.532Z,5.80
2019-02-06T10:10:30.559Z,5.80
2019-02-06T10:12:59.494Z,5.80
2019-02-06T10:15:30.740Z,5.80
2019-02-06T10:18:01.039Z,5.90
2019-02-06T10:20:32.757Z,5.90
2019-02-06T10:23:01.968Z,5.90
2019-02-06T10:25:31.371Z,5.90
2019-02-06T10:28:00.490Z,6.00
2019-02-06T10:30:34.594Z,6.00
2019-02-06T10:33:03.649Z,6.00
2019-02-06T10:35:32.679Z,6.10
2019-02-06T10:38:01.759Z,6.10
2019-02-06T10:40:30.951Z,6.10
2019-02-06T10:43:00.032Z,6.10
2019-02-06T10:45:30.727Z,6.10
2019-02-06T10:47:59.920Z,6.10
2019-02-06T10:50:34.322Z,6.20
2019-02-06T10:53:04.110Z,6.20
2019-02-06T10:55:33.182Z,6.20
2019-02-06T10:58:02.374Z,6.30
2019-02-06T11:00:49.648Z,6.30
2019-02-06T11:03:18.641Z,6.30
2019-02-06T11:05:47.644Z,6.30
2019-02-06T11:08:16.680Z,6.30
2019-02-06T11:10:45.771Z,6.30
2019-02-06T11:13:14.990Z,6.40
2019-02-06T11:15:44.039Z,6.40
2019-02-06T11:18:13.137Z,6.50
2019-02-06T11:20:42.144Z,6.50
2019-02-06T11:23:11.080Z,6.60
2019-02-06T11:25:40.096Z,6.60
2019-02-06T11:28:15.805Z,6.60
2019-02-06T11:30:44.865Z,6.70
2019-02-06T11:33:19.250Z,6.70
2019-02-06T11:35:48.228Z,6.70
2019-02-06T11:38:18.555Z,6.70
2019-02-06T11:40:50.239Z,6.70
2019-02-06T11:43:22.274Z,6.70
2019-02-06T11:45:51.268Z,6.70
2019-02-06T11:48:20.246Z,6.80
2019-02-06T11:50:49.346Z,6.80
2019-02-06T11:53:20.654Z,6.80
2019-02-06T11:55:49.966Z,6.80
2019-02-06T11:58:18.941Z,6.80
2019-02-06T12:01:07.030Z,6.80
2019-02-06T12:03:36.068Z,6.80
2019-02-06T12:06:05.676Z,6.80
2019-02-06T12:08:34.782Z,6.80
2019-02-06T12:11:03.997Z,6.90
2019-02-06T12:13:32.983Z,6.90
2019-02-06T12:16:02.091Z,6.90
2019-02-06T12:18:31.026Z,6.90
2019-02-06T12:21:02.386Z,6.90
2019-02-06T12:23:32.555Z,6.90
2019-02-06T12:26:05.458Z,7.00
2019-02-06T12:28:34.449Z,7.00
2019-02-06T12:31:03.671Z,7.00
2019-02-06T12:33:32.667Z,7.00
2019-02-06T12:36:10.465Z,7.00
2019-02-06T12:38:53.157Z,7.00
2019-02-06T12:41:15.722Z,7.10
2019-02-06T12:43:47.413Z,7.00
2019-02-06T12:46:16.409Z,7.00
2019-02-06T12:48:45.470Z,7.00
2019-02-06T12:51:21.140Z,7.00
2019-02-06T12:53:52.037Z,7.10
2019-02-06T12:56:22.474Z,7.10
2019-02-06T12:58:51.539Z,7.10
2019-02-06T13:01:20.521Z,7.10
2019-02-06T13:03:49.953Z,7.20
2019-02-06T13:06:19.313Z,7.20
2019-02-06T13:08:48.331Z,7.20
2019-02-06T13:11:19.145Z,7.20
2019-02-06T13:13:48.113Z,7.30
2019-02-06T13:16:17.086Z,7.30
2019-02-06T13:18:46.078Z,7.30
2019-02-06T13:21:15.068Z,7.30
2019-02-06T13:23:44.065Z,7.30
2019-02-06T13:26:13.035Z,7.30
2019-02-06T13:28:41.927Z,7.30
2019-02-06T13:31:10.833Z,7.30
2019-02-06T13:33:39.749Z,7.40
2019-02-06T13:36:14.925Z,7.40
2019-02-06T13:38:43.771Z,7.40
2019-02-06T13:41:12.695Z,7.40
2019-02-06T13:43:41.732Z,7.40
2019-02-06T13:46:10.669Z,7.40
2019-02-06T13:48:39.744Z,7.40
2019-02-06T13:51:16.365Z,7.40
2019-02-06T13:53:42.251Z,7.40
2019-02-06T13:56:10.325Z,7.40
2019-02-06T13:58:39.252Z,7.40
2019-02-06T14:01:08.272Z,7.40
2019-02-06T14:03:37.449Z,7.40
2019-02-06T14:06:06.656Z,7.40
2019-02-06T14:08:35.632Z,7.40
2019-02-06T14:11:04.776Z,7.40
2019-02-06T14:13:36.543Z,7.40
2019-02-06T14:16:06.693Z,7.40
2019-02-06T14:18:35.894Z,7.40
2019-02-06T14:21:05.195Z,7.40
2019-02-06T14:23:43.270Z,7.40
2019-02-06T14:26:22.866Z,7.50
2019-02-06T14:29:15.488Z,7.40
2019-02-06T14:31:54.825Z,7.40
2019-02-06T14:34:44.463Z,7.40
2019-02-06T14:37:38.737Z,7.40
2019-02-06T14:40:35.845Z,7.40
2019-02-06T14:43:28.229Z,7.40
2019-02-06T14:46:46.409Z,7.40
2019-02-06T14:49:33.320Z,7.40
2019-02-06T14:52:48.714Z,7.40
2019-02-06T14:55:38.575Z,7.40
2019-02-06T14:59:03.554Z,7.40
2019-02-06T15:01:52.640Z,7.40
2019-02-06T15:04:56.918Z,7.40
2019-02-06T15:08:08.293Z,7.40
2019-02-06T15:11:07.806Z,7.40
2019-02-06T15:14:18.181Z,7.40
2019-02-06T15:17:26.589Z,7.40
2019-02-06T15:20:36.179Z,7.40
2019-02-06T15:24:10.183Z,7.40
2019-02-06T15:27:10.273Z,7.40
2019-02-06T15:29:55.329Z,7.40
2019-02-06T15:32:43.808Z,7.40
2019-02-06T15:36:01.077Z,7.40
2019-02-06T15:39:02.413Z,7.40
2019-02-06T15:42:06.361Z,7.30
2019-02-06T15:45:11.163Z,7.40
2019-02-06T15:48:04.668Z,7.40
2019-02-06T15:51:11.540Z,7.30
2019-02-06T15:54:13.162Z,7.30
2019-02-06T15:57:07.120Z,7.30
2019-02-06T16:00:20.797Z,7.30
2019-02-06T16:02:57.817Z,7.30
2019-02-06T16:06:24.674Z,7.30
2019-02-06T16:09:32.031Z,7.30
2019-02-06T16:12:46.841Z,7.30
2019-02-06T16:15:37.574Z,7.30
2019-02-06T16:18:53.739Z,7.30
2019-02-06T16:21:53.524Z,7.30
2019-02-06T16:24:53.166Z,7.30
2019-02-06T16:27:52.739Z,7.30
2019-02-06T16:30:58.415Z,7.30
2019-02-06T16:33:51.151Z,7.30
2019-02-06T16:36:56.880Z,7.30
2019-02-06T16:39:47.333Z,7.30
2019-02-06T16:43:11.424Z,7.30
2019-02-06T16:46:33.334Z,7.30
2019-02-06T16:49:23.142Z,7.30
2019-02-06T16:52:08.667Z,7.30
2019-02-06T16:55:33.795Z,7.30
2019-02-06T16:58:31.647Z,7.30
2019-02-06T17:01:36.272Z,7.30
2019-02-06T17:04:51.126Z,7.30
2019-02-06T17:07:42.743Z,7.30
2019-02-06T17:10:35.766Z,7.30
2019-02-06T17:13:35.952Z,7.30
2019-02-06T17:16:35.778Z,7.30
2019-02-06T17:19:18.147Z,7.30
2019-02-06T17:22:23.211Z,7.30
2019-02-06T17:25:37.193Z,7.30
2019-02-06T17:28:36.691Z,7.30
2019-02-06T17:31:49.889Z,7.30
2019-02-06T17:34:30.773Z,7.30
2019-02-06T17:37:44.122Z,7.30
2019-02-06T17:40:47.513Z,7.30
2019-02-06T17:43:47.849Z,7.30
2019-02-06T17:47:08.965Z,7.30
2019-02-06T17:50:14.628Z,7.30
2019-02-06T17:53:17.511Z,7.30
2019-02-06T17:55:46.848Z,7.30
2019-02-06T17:58:15.818Z,7.30
2019-02-06T18:01:27.136Z,7.30
2019-02-06T18:04:00.044Z,7.30
2019-02-06T18:06:28.976Z,7.30
2019-02-06T18:08:58.005Z,7.30
2019-02-06T18:11:27.024Z,7.40
2019-02-06T18:13:56.106Z,7.40
2019-02-06T18:16:25.211Z,7.40
2019-02-06T18:18:54.212Z,7.70
2019-02-06T18:21:23.310Z,7.70
2019-02-06T18:23:52.614Z,7.60
2019-02-06T18:26:21.703Z,7.50
2019-02-06T18:28:50.965Z,7.50
2019-02-06T18:31:20.057Z,7.40
2019-02-06T18:33:49.160Z,7.40
2019-02-06T18:36:18.376Z,7.40
2019-02-06T18:38:48.477Z,7.40
2019-02-06T18:41:17.554Z,7.40
2019-02-06T18:43:46.638Z,7.40
2019-02-06T18:46:15.890Z,7.40
2019-02-06T18:48:44.957Z,7.40
2019-02-06T18:51:14.259Z,7.40
2019-02-06T18:53:47.865Z,7.40
2019-02-06T18:56:18.828Z,7.40
2019-02-06T18:58:47.832Z,7.40
2019-02-06T19:01:16.856Z,7.40
2019-02-06T19:03:46.539Z,7.50
2019-02-06T19:06:15.528Z,7.50
2019-02-06T19:08:44.568Z,7.50
2019-02-06T19:11:13.797Z,7.50
2019-02-06T19:13:42.888Z,7.50
2019-02-06T19:16:12.040Z,7.50
2019-02-06T19:18:41.091Z,7.50
2019-02-06T19:21:10.141Z,7.50
2019-02-06T19:23:39.447Z,7.50
2019-02-06T19:26:08.768Z,7.50
2019-02-06T19:28:37.789Z,7.50
2019-02-06T19:31:06.809Z,7.50
2019-02-06T19:33:35.824Z,7.50
2019-02-06T19:36:10.400Z,7.50
2019-02-06T19:38:39.702Z,7.50
2019-02-06T19:41:08.864Z,7.50
2019-02-06T19:43:38.247Z,7.50
2019-02-06T19:46:07.321Z,7.50
2019-02-06T19:48:37.970Z,7.50
2019-02-06T19:51:06.876Z,7.50
2019-02-06T19:53:35.869Z,7.50
2019-02-06T19:56:05.597Z,7.50
2019-02-06T19:58:34.670Z,7.50
2019-02-06T20:01:03.841Z,7.50
2019-02-06T20:03:32.916Z,7.50
2019-02-06T20:06:01.828Z,7.50
2019-02-06T20:08:30.912Z,7.60
2019-02-06T20:11:02.944Z,7.50
2019-02-06T20:13:32.367Z,7.50
2019-02-06T20:16:01.329Z,7.50
2019-02-06T20:18:30.380Z,7.60
2019-02-06T20:21:00.680Z,7.50
2019-02-06T20:23:30.442Z,7.60
2019-02-06T20:25:59.490Z,7.60
2019-02-06T20:28:28.552Z,7.60
2019-02-06T20:30:57.976Z,7.60
2019-02-06T20:33:26.968Z,7.60
2019-02-06T20:35:55.893Z,7.60
2019-02-06T20:38:25.033Z,7.60
2019-02-06T20:40:54.011Z,7.60
2019-02-06T20:43:23.007Z,7.60
2019-02-06T20:45:51.933Z,7.60
2019-02-06T20:48:21.287Z,7.60
2019-02-06T20:50:51.541Z,7.60
2019-02-06T20:53:20.680Z,7.60
2019-02-06T20:55:49.692Z,7.60
2019-02-06T20:58:18.672Z,7.60
2019-02-06T21:00:47.910Z,7.60
2019-02-06T21:03:16.821Z,7.70
2019-02-06T21:05:46.018Z,7.70
2019-02-06T21:08:15.179Z,7.70
2019-02-06T21:10:44.204Z,7.70
2019-02-06T21:13:13.137Z,7.70
2019-02-06T21:15:42.159Z,7.70
2019-02-06T21:18:12.773Z,7.70
2019-02-06T21:20:42.343Z,7.70
2019-02-06T21:23:11.341Z,7.70
2019-02-06T21:25:40.361Z,7.70
2019-02-06T21:28:09.460Z,7.70
2019-02-06T21:30:38.746Z,7.70
2019-02-06T21:33:07.754Z,7.70
2019-02-06T21:35:36.866Z,7.70
2019-02-06T21:38:06.080Z,7.70
2019-02-06T21:40:35.447Z,7.80
2019-02-06T21:43:04.770Z,7.80
2019-02-06T21:45:34.084Z,7.80
2019-02-06T21:48:03.229Z,7.80
2019-02-06T21:50:32.270Z,7.80
2019-02-06T21:53:01.317Z,7.80
2019-02-06T21:55:30.395Z,7.80
2019-02-06T21:57:59.582Z,7.80
2019-02-06T22:00:34.216Z,7.80
2019-02-06T22:03:03.335Z,7.80
2019-02-06T22:05:32.691Z,7.80
2019-02-06T22:08:02.914Z,7.80
2019-02-06T22:10:31.948Z,7.80
2019-02-06T22:13:01.037Z,7.80
2019-02-06T22:15:30.051Z,7.80
2019-02-06T22:17:59.085Z,7.80
2019-02-06T22:20:28.352Z,7.80
2019-02-06T22:22:57.344Z,7.90
2019-02-06T22:25:26.399Z,7.90
2019-02-06T22:27:55.532Z,7.80
2019-02-06T22:30:26.324Z,7.90
2019-02-06T22:32:55.348Z,7.80
2019-02-06T22:35:24.695Z,7.90
2019-02-06T22:37:53.767Z,7.90
2019-02-06T22:40:23.781Z,7.90
2019-02-06T22:42:52.838Z,7.90
2019-02-06T22:45:23.742Z,7.90
2019-02-06T22:47:52.772Z,7.90
2019-02-06T22:50:23.971Z,7.90
2019-02-06T22:52:52.942Z,7.90
2019-02-06T22:55:21.951Z,7.90
2019-02-06T22:57:50.974Z,7.90
2019-02-06T23:00:47.027Z,7.90
2019-02-06T23:03:19.183Z,7.90
2019-02-06T23:05:48.173Z,7.90
2019-02-06T23:08:17.032Z,7.90
2019-02-06T23:10:46.133Z,7.90
2019-02-06T23:13:15.532Z,7.90
2019-02-06T23:15:45.697Z,7.90
2019-02-06T23:18:14.814Z,8.00
2019-02-06T23:20:43.848Z,7.90
2019-02-06T23:23:12.781Z,7.90
2019-02-06T23:25:43.214Z,7.90
2019-02-06T23:28:12.612Z,7.90
2019-02-06T23:30:41.587Z,7.90
2019-02-06T23:33:10.604Z,7.90
2019-02-06T23:35:39.583Z,7.90
2019-02-06T23:38:08.608Z,7.90
2019-02-06T23:40:37.583Z,7.90
2019-02-06T23:43:06.873Z,7.90
2019-02-06T23:45:35.863Z,7.90
2019-02-06T23:48:04.958Z,7.90
2019-02-06T23:50:33.948Z,7.90
2019-02-06T23:53:02.948Z,7.90
2019-02-06T23:55:31.918Z,7.90
2019-02-06T23:58:02.389Z,7.90
